Time;durP1;ratioP1;P1;durP2;ratioP2;P2;SDS_P1;SDS_P2;PMS_P1;PMS_P2;Temp;Humidity;BMP_temperature;BMP_pressure;BME280_temperature;BME280_humidity;BME280_pressure;Samples;Min_cycle;Max_cycle;Signal;HPM_P1;HPM_P2
2022/01/23 00:00:27;;;;;;;4.40;2.10;;;;;;;5.84;36.55;101769.34;144993;572;6004;-90
2022/01/23 00:03:00;;;;;;;3.62;2.40;;;;;;;5.96;36.63;101776.97;144993;578;6002;-85
2022/01/23 00:05:33;;;;;;;3.50;2.22;;;;;;;6.04;36.56;101782.69;144992;616;6002;-86
2022/01/23 00:08:01;;;;;;;2.70;1.80;;;;;;;6.18;36.44;101785.34;144993;570;6002;-84
2022/01/23 00:10:27;;;;;;;2.90;1.98;;;;;;;6.10;36.42;101786.53;144993;599;6002;-85
2022/01/23 00:13:06;;;;;;;3.30;2.10;;;;;;;5.92;36.58;101793.06;144993;606;6002;-84
2022/01/23 00:18:21;;;;;;;2.50;2.00;;;;;;;5.46;38.01;101806.31;144993;617;6005;-85
2022/01/23 00:20:48;;;;;;;2.40;1.85;;;;;;;5.35;37.91;101803.00;144994;564;5002;-84
2022/01/23 00:23:32;;;;;;;3.00;1.98;;;;;;;5.48;38.38;101804.75;144994;585;5002;-86
2022/01/23 00:31:30;;;;;;;3.08;1.70;;;;;;;4.96;39.02;101811.44;144994;620;5002;-84
2022/01/23 00:33:58;;;;;;;2.45;1.50;;;;;;;5.17;38.61;101815.53;144994;576;5003;-86
2022/01/23 00:36:26;;;;;;;3.45;1.77;;;;;;;5.07;39.63;101821.72;144994;569;5002;-84
2022/01/23 00:38:54;;;;;;;4.90;2.47;;;;;;;4.96;40.27;101812.34;144994;569;5002;-85
2022/01/23 00:41:21;;;;;;;2.50;1.40;;;;;;;4.87;40.74;101811.72;144994;607;5003;-85
2022/01/23 00:43:49;;;;;;;3.05;1.50;;;;;;;4.83;40.86;101827.72;144994;565;5002;-85
2022/01/23 00:46:30;;;;;;;3.47;1.62;;;;;;;4.76;41.29;101817.75;144994;563;5002;-86
2022/01/23 00:51:45;;;;;;;2.22;1.20;;;;;;;5.15;40.02;101832.53;144994;575;5004;-87
2022/01/23 00:54:11;;;;;;;1.40;1.10;;;;;;;5.24;39.76;101827.13;144994;572;5004;-84
2022/01/23 00:56:38;;;;;;;3.08;1.27;;;;;;;5.27;39.58;101837.66;144994;594;5004;-86
2022/01/23 00:59:05;;;;;;;2.97;1.30;;;;;;;5.48;39.58;101840.78;144994;601;5004;-85
2022/01/23 01:01:32;;;;;;;2.37;1.48;;;;;;;5.28;39.61;101844.56;144994;589;5004;-85
2022/01/23 01:03:59;;;;;;;1.45;1.05;;;;;;;5.10;39.01;101846.75;144994;566;5004;-84
2022/01/23 01:06:25;;;;;;;1.73;1.27;;;;;;;5.13;37.26;101835.81;144994;591;5004;-85
2022/01/23 01:08:55;;;;;;;2.08;0.90;;;;;;;5.33;37.36;101840.66;144994;588;5004;-86
2022/01/23 01:14:25;;;;;;;1.48;1.15;;;;;;;5.24;37.09;101840.91;144994;585;5002;-84
2022/01/23 01:17:18;;;;;;;1.20;0.88;;;;;;;5.06;35.24;101845.66;144994;613;5002;-84
2022/01/23 01:31:02;;;;;;;0.80;0.75;;;;;;;5.02;34.39;101856.50;144994;583;5004;-86
2022/01/23 01:36:51;;;;;;;1.00;0.80;;;;;;;5.00;33.85;101859.78;144994;619;5002;-85
2022/01/23 01:39:29;;;;;;;1.63;1.10;;;;;;;5.09;35.26;101865.59;144994;593;5002;-85
2022/01/23 01:42:01;;;;;;;2.30;1.30;;;;;;;5.08;34.90;101856.06;144993;570;5004;-84
2022/01/23 01:44:30;;;;;;;1.58;1.10;;;;;;;4.93;36.60;101850.72;144994;600;5002;-84
2022/01/23 01:46:58;;;;;;;1.17;0.90;;;;;;;4.79;37.44;101856.56;144994;601;5002;-83
2022/01/23 01:49:31;;;;;;;2.62;1.00;;;;;;;4.86;37.74;101851.97;144994;635;5002;-85
2022/01/23 01:52:00;;;;;;;1.10;1.00;;;;;;;4.79;38.39;101846.28;144994;578;5002;-84
2022/01/23 01:54:31;;;;;;;2.75;1.08;;;;;;;4.95;37.93;101843.09;144994;573;5002;-83
2022/01/23 01:57:13;;;;;;;1.90;1.00;;;;;;;5.19;37.61;101847.41;144994;585;5002;-84
2022/01/23 02:00:00;;;;;;;3.83;2.05;;;;;;;4.85;38.14;101857.00;144994;602;5002;-85
2022/01/23 02:11:18;;;;;;;3.00;1.30;;;;;;;4.28;37.65;101874.37;144994;575;5004;-84
2022/01/23 02:13:52;;;;;;;1.75;1.10;;;;;;;4.28;37.20;101870.91;144994;591;5004;-86
2022/01/23 02:16:43;;;;;;;1.70;0.93;;;;;;;4.21;37.45;101874.69;144994;595;5004;-83
2022/01/23 02:55:14;;;;;;;2.33;1.75;;;;;;;3.95;35.41;101955.00;144994;672;5002;-83
2022/01/23 03:00:33;;;;;;;2.53;1.90;;;;;;;4.10;36.25;101960.38;144994;571;5004;-84
2022/01/23 03:03:09;;;;;;;2.77;1.60;;;;;;;4.04;35.36;101962.50;144994;584;5004;-82
2022/01/23 03:05:38;;;;;;;1.30;1.10;;;;;;;3.94;35.39;101969.50;144993;694;5004;-84
2022/01/23 03:11:14;;;;;;;2.33;1.27;;;;;;;4.09;35.42;101974.00;144994;571;5004;-83
2022/01/23 03:13:54;;;;;;;1.60;1.15;;;;;;;4.11;35.38;101968.22;144994;568;5004;-83
2022/01/23 03:30:26;;;;;;;1.42;1.20;;;;;;;4.08;34.86;101979.94;144994;600;5002;-84
2022/01/23 03:32:53;;;;;;;2.58;1.35;;;;;;;3.88;34.87;101978.41;144994;644;5002;-85
2022/01/23 03:35:21;;;;;;;1.35;1.12;;;;;;;3.89;34.77;101986.25;144994;581;5002;-85
2022/01/23 03:37:48;;;;;;;1.20;0.77;;;;;;;3.98;34.78;101988.63;144994;569;5002;-82
2022/01/23 03:40:16;;;;;;;1.30;1.00;;;;;;;3.90;33.79;101992.28;144994;565;5003;-83
2022/01/23 03:42:44;;;;;;;2.60;1.85;;;;;;;3.82;34.35;101994.28;144994;563;5002;-83
2022/01/23 03:45:42;;;;;;;3.33;1.73;;;;;;;3.79;33.99;101996.59;144994;682;5002;-86
2022/01/23 03:51:12;;;;;;;1.52;1.35;;;;;;;3.77;33.88;101991.34;144994;685;5002;-83
2022/01/23 03:53:47;;;;;;;2.25;1.05;;;;;;;4.08;34.39;101998.81;144994;695;5002;-81
2022/01/23 03:56:30;;;;;;;2.62;1.15;;;;;;;3.96;33.37;102003.94;144994;569;5002;-84
2022/01/23 03:59:10;;;;;;;1.48;1.12;;;;;;;4.05;33.40;102005.41;144994;572;5002;-82
2022/01/23 04:01:50;;;;;;;1.67;1.27;;;;;;;4.18;33.34;102006.47;144994;585;5002;-83
2022/01/23 04:07:16;;;;;;;2.25;1.20;;;;;;;4.06;32.96;102028.66;144994;583;5004;-83
2022/01/23 04:09:51;;;;;;;1.55;1.10;;;;;;;3.91;33.15;102025.78;144994;588;5004;-83
2022/01/23 04:12:48;;;;;;;1.37;1.08;;;;;;;4.08;33.85;102036.47;144994;573;5004;-83
2022/01/23 04:47:11;;;;;;;1.52;1.15;;;;;;;3.96;32.87;102057.88;144994;617;5002;-82
2022/01/23 05:01:02;;;;;;;2.53;1.10;;;;;;;3.68;32.70;102062.53;144992;569;6004;-83
2022/01/23 05:06:31;;;;;;;1.37;1.02;;;;;;;3.78;33.02;102065.03;144992;597;6002;-83
2022/01/23 05:08:57;;;;;;;1.73;1.00;;;;;;;3.86;33.30;102075.91;144992;588;6002;-84
2022/01/23 05:11:24;;;;;;;1.67;1.10;;;;;;;3.93;34.35;102083.34;144992;566;6002;-83
2022/01/23 05:13:51;;;;;;;1.65;0.90;;;;;;;3.75;33.72;102084.44;144992;610;6002;-84
2022/01/23 05:16:19;;;;;;;2.35;1.10;;;;;;;3.80;33.65;102086.63;144992;571;6002;-82
2022/01/23 05:18:45;;;;;;;1.45;0.90;;;;;;;3.62;32.84;102088.59;144992;690;6002;-83
2022/01/23 05:21:42;;;;;;;2.00;1.00;;;;;;;3.79;33.41;102089.97;144992;563;6002;-80
2022/01/23 05:24:03;;;;;;;2.75;1.30;;;;;;;3.74;34.07;102100.63;144992;650;6005;-84
2022/01/23 05:26:30;;;;;;;2.00;0.98;;;;;;;3.64;34.01;102093.88;144991;627;6000;-82
2022/01/23 05:28:57;;;;;;;1.52;1.10;;;;;;;3.73;33.72;102091.16;144992;632;6002;-82
2022/01/23 05:31:23;;;;;;;2.15;1.45;;;;;;;3.83;34.10;102098.78;144992;566;6003;-82
2022/01/23 05:33:50;;;;;;;1.40;1.00;;;;;;;3.83;34.17;102096.22;144992;592;6002;-82
2022/01/23 05:36:20;;;;;;;1.95;1.30;;;;;;;3.83;34.13;102098.78;144992;577;6002;-84
2022/01/23 05:38:47;;;;;;;2.15;1.20;;;;;;;3.84;33.65;102092.00;144992;589;6003;-82
2022/01/23 05:41:13;;;;;;;2.50;1.67;;;;;;;3.77;33.49;102098.31;144992;565;6002;-82
2022/01/23 05:43:40;;;;;;;2.92;1.30;;;;;;;4.03;33.63;102100.38;144992;573;6002;-81
2022/01/23 05:46:06;;;;;;;2.05;1.25;;;;;;;4.14;33.04;102099.53;144992;617;6002;-81
2022/01/23 05:48:33;;;;;;;3.37;2.10;;;;;;;4.00;32.80;102098.44;144991;598;6002;-83
2022/01/23 05:50:59;;;;;;;3.53;1.73;;;;;;;4.08;32.93;102101.63;144992;597;6002;-82
2022/01/23 05:53:26;;;;;;;2.10;1.20;;;;;;;3.99;32.68;102108.59;144992;633;6002;-81
2022/01/23 05:55:53;;;;;;;2.05;1.08;;;;;;;3.93;32.82;102096.19;144992;617;6002;-82
2022/01/23 05:58:19;;;;;;;2.92;1.30;;;;;;;4.11;32.87;102106.12;144992;582;6002;-82
2022/01/23 06:00:45;;;;;;;2.03;1.12;;;;;;;4.25;33.48;102105.50;144992;565;6002;-81
2022/01/23 06:03:12;;;;;;;2.10;1.55;;;;;;;4.36;33.14;102109.81;144992;653;6002;-81
2022/01/23 06:05:39;;;;;;;3.42;1.90;;;;;;;4.23;32.75;102119.94;144992;565;6002;-83
2022/01/23 06:08:05;;;;;;;2.05;1.60;;;;;;;4.36;33.01;102130.38;144992;589;6002;-82
2022/01/23 06:10:46;;;;;;;2.33;1.85;;;;;;;4.61;33.03;102129.66;144992;612;6002;-82
2022/01/23 06:13:13;;;;;;;3.37;1.60;;;;;;;4.33;32.82;102125.00;144992;712;6002;-81
2022/01/23 06:15:39;;;;;;;5.25;1.67;;;;;;;4.62;33.00;102125.44;144992;583;6002;-82
2022/01/23 06:18:06;;;;;;;2.65;1.70;;;;;;;4.37;32.93;102126.13;144992;566;6002;-81
2022/01/23 06:20:34;;;;;;;2.58;1.60;;;;;;;4.09;33.69;102120.50;144992;582;6002;-84
2022/01/23 06:23:01;;;;;;;2.67;1.90;;;;;;;4.17;33.64;102128.03;144992;585;6002;-83
2022/01/23 06:25:34;;;;;;;3.55;1.60;;;;;;;4.34;33.61;102125.88;144992;576;6002;-83
2022/01/23 06:28:00;;;;;;;1.77;1.50;;;;;;;4.34;32.99;102129.38;144992;563;6002;-82
2022/01/23 06:30:27;;;;;;;2.67;1.45;;;;;;;4.38;33.00;102121.91;144992;566;6002;-81
2022/01/23 06:32:53;;;;;;;2.95;1.50;;;;;;;4.59;33.32;102117.50;144992;653;6002;-82
2022/01/23 06:35:20;;;;;;;2.47;1.37;;;;;;;4.65;32.85;102113.72;144992;576;6002;-83
2022/01/23 06:37:46;;;;;;;1.73;1.20;;;;;;;4.60;33.25;102126.97;144992;573;6002;-84
2022/01/23 06:40:13;;;;;;;4.57;1.40;;;;;;;4.41;33.83;102124.72;144991;601;6002;-84
2022/01/23 06:42:40;;;;;;;3.87;1.55;;;;;;;4.59;33.53;102131.25;144992;676;6002;-80
2022/01/23 06:45:07;;;;;;;2.35;1.52;;;;;;;4.26;33.41;102134.69;144992;610;6002;-81
2022/01/23 06:47:34;;;;;;;3.20;1.60;;;;;;;3.88;34.23;102143.75;144992;579;6002;-81
2022/01/23 06:50:00;;;;;;;2.33;1.50;;;;;;;3.83;34.36;102154.41;144992;580;6002;-84
2022/01/23 06:52:27;;;;;;;4.37;3.40;;;;;;;3.59;35.72;102167.97;144992;608;6002;-82
2022/01/23 06:54:53;;;;;;;3.62;2.30;;;;;;;3.72;34.79;102171.53;144992;617;6002;-82
2022/01/23 06:57:19;;;;;;;3.22;2.05;;;;;;;4.08;34.40;102177.84;144992;633;6002;-82
2022/01/23 06:59:46;;;;;;;3.60;2.70;;;;;;;4.06;35.20;102185.41;144992;586;6002;-82
2022/01/23 07:02:14;;;;;;;3.78;2.33;;;;;;;4.36;34.67;102175.78;144992;646;6002;-83
2022/01/23 07:04:40;;;;;;;2.95;2.25;;;;;;;4.50;34.77;102176.81;144992;682;6002;-83
2022/01/23 07:07:09;;;;;;;4.40;1.85;;;;;;;4.04;40.01;102184.41;144992;691;6002;-82
2022/01/23 07:09:36;;;;;;;3.72;1.83;;;;;;;4.38;39.17;102181.91;144992;585;6002;-82
2022/01/23 07:12:12;;;;;;;3.03;1.80;;;;;;;4.18;40.66;102182.91;144992;577;6002;-82
2022/01/23 07:14:55;;;;;;;4.22;1.90;;;;;;;4.46;38.93;102183.41;144992;586;6002;-83
2022/01/23 07:17:24;;;;;;;2.60;1.58;;;;;;;4.72;37.34;102166.50;144992;574;6002;-83
2022/01/23 07:19:58;;;;;;;3.95;1.83;;;;;;;5.27;36.78;102175.84;144991;713;6002;-84
2022/01/23 07:22:28;;;;;;;2.28;1.62;;;;;;;5.11;36.29;102171.97;144992;566;6002;-82
2022/01/23 07:24:55;;;;;;;4.18;1.90;;;;;;;5.14;36.65;102170.56;144992;594;6002;-81
2022/01/23 07:27:22;;;;;;;3.50;1.90;;;;;;;5.01;36.57;102163.59;144992;619;6002;-83
2022/01/23 07:29:49;;;;;;;4.82;2.20;;;;;;;5.07;36.47;102176.94;144992;574;6002;-84
2022/01/23 07:32:16;;;;;;;3.83;1.98;;;;;;;4.95;36.55;102163.13;144992;581;6002;-83
2022/01/23 07:34:44;;;;;;;2.58;1.62;;;;;;;4.62;36.66;102158.87;144992;609;6002;-83
2022/01/23 07:37:12;;;;;;;2.12;1.33;;;;;;;4.67;36.81;102168.72;144992;566;6002;-83
2022/01/23 07:39:39;;;;;;;1.98;1.50;;;;;;;5.23;35.95;102173.84;144992;580;6002;-83
2022/01/23 07:42:07;;;;;;;3.10;1.80;;;;;;;5.58;35.71;102170.38;144992;593;6002;-85
2022/01/23 07:44:34;;;;;;;2.60;1.50;;;;;;;5.47;34.92;102171.25;144992;607;6002;-83
2022/01/23 07:47:00;;;;;;;3.12;1.75;;;;;;;5.85;34.02;102187.72;144992;607;6002;-83
2022/01/23 07:49:27;;;;;;;3.28;2.10;;;;;;;6.26;33.91;102179.53;144992;563;6002;-82
2022/01/23 07:51:53;;;;;;;3.40;1.83;;;;;;;6.02;33.23;102178.69;144992;641;6002;-84
2022/01/23 07:54:22;;;;;;;3.58;2.00;;;;;;;5.86;33.15;102182.69;144992;625;6002;-85
2022/01/23 07:56:48;;;;;;;3.22;2.20;;;;;;;5.88;33.61;102190.53;144992;570;6002;-83
2022/01/23 07:59:15;;;;;;;2.37;1.58;;;;;;;5.66;33.74;102190.66;144991;576;6002;-82
2022/01/23 08:01:41;;;;;;;2.45;1.70;;;;;;;5.74;33.46;102202.41;144992;619;6002;-82
2022/01/23 08:04:09;;;;;;;1.80;1.48;;;;;;;5.90;32.94;102212.16;144992;602;6002;-82
2022/01/23 08:06:41;;;;;;;2.20;1.70;;;;;;;6.09;32.85;102222.12;144992;598;6002;-82
2022/01/23 08:09:09;;;;;;;1.98;1.52;;;;;;;5.91;32.44;102221.69;144992;571;6002;-85
2022/01/23 08:11:36;;;;;;;2.42;1.70;;;;;;;6.29;32.05;102226.16;144991;635;6002;-77
2022/01/23 08:14:03;;;;;;;2.33;1.67;;;;;;;6.04;31.82;102238.97;144992;573;6002;-84
2022/01/23 08:16:32;;;;;;;4.10;2.10;;;;;;;5.98;32.28;102248.06;144992;614;6002;-82
2022/01/23 08:18:59;;;;;;;2.90;1.70;;;;;;;6.00;32.55;102255.91;144992;578;6002;-81
2022/01/23 08:21:25;;;;;;;2.87;2.10;;;;;;;6.00;32.58;102261.06;144992;609;6002;-84
2022/01/23 08:23:57;;;;;;;3.53;2.08;;;;;;;6.40;32.87;102248.44;144992;590;6002;-83
2022/01/23 08:26:24;;;;;;;2.75;1.92;;;;;;;6.01;32.43;102259.38;144992;604;6002;-84
2022/01/23 08:28:58;;;;;;;2.62;1.77;;;;;;;6.27;32.93;102262.16;144992;602;6002;-83
2022/01/23 08:31:25;;;;;;;3.92;2.00;;;;;;;6.50;33.01;102261.19;144992;569;6002;-83
2022/01/23 08:33:53;;;;;;;2.95;2.00;;;;;;;6.10;32.63;102265.19;144992;571;6002;-82
2022/01/23 08:36:20;;;;;;;3.20;1.85;;;;;;;5.73;32.70;102280.50;144992;588;6002;-83
2022/01/23 08:38:46;;;;;;;2.22;1.60;;;;;;;5.37;33.32;102275.28;144992;581;6002;-81
2022/01/23 08:43:58;;;;;;;3.28;2.03;;;;;;;5.20;34.07;102281.72;144992;565;6004;-82
2022/01/23 08:46:25;;;;;;;4.32;2.08;;;;;;;5.15;35.36;102279.56;144992;566;6004;-80
2022/01/23 08:48:51;;;;;;;2.45;1.80;;;;;;;5.19;33.25;102285.06;144991;593;6000;-82
2022/01/23 08:51:18;;;;;;;2.55;1.73;;;;;;;5.03;33.18;102285.56;144992;645;6002;-82
2022/01/23 08:53:44;;;;;;;3.15;1.70;;;;;;;5.15;33.17;102274.44;144992;588;6002;-82
2022/01/23 08:56:12;;;;;;;1.83;1.50;;;;;;;5.23;32.69;102274.25;144992;583;6002;-80
2022/01/23 08:58:39;;;;;;;2.78;1.55;;;;;;;5.16;32.71;102277.13;144992;615;6002;-83
2022/01/23 09:01:05;;;;;;;2.62;1.62;;;;;;;5.13;32.86;102278.56;144992;622;6002;-80
2022/01/23 09:03:32;;;;;;;2.95;1.75;;;;;;;5.37;32.62;102276.97;144992;597;6002;-81
2022/01/23 09:05:58;;;;;;;2.50;1.83;;;;;;;5.70;32.60;102280.28;144992;595;6002;-81
2022/01/23 09:08:25;;;;;;;2.33;1.98;;;;;;;5.73;32.19;102277.94;144992;577;6002;-80
2022/01/23 09:10:54;;;;;;;3.47;2.10;;;;;;;5.66;32.25;102273.09;144992;641;6002;-83
2022/01/23 09:13:30;;;;;;;3.28;2.28;;;;;;;5.90;32.01;102261.13;144992;608;6002;-79
2022/01/23 09:15:56;;;;;;;3.87;1.90;;;;;;;6.31;31.58;102266.72;144992;591;6002;-82
2022/01/23 09:18:23;;;;;;;3.87;3.12;;;;;;;6.46;30.74;102269.53;144992;569;6002;-82
2022/01/23 09:20:50;;;;;;;6.78;5.05;;;;;;;6.16;31.55;102268.22;144991;565;6002;-81
2022/01/23 09:23:17;;;;;;;6.47;5.25;;;;;;;6.17;31.41;102259.69;144992;622;6002;-80
2022/01/23 09:25:43;;;;;;;4.78;3.45;;;;;;;6.37;31.88;102268.88;144992;615;6002;-83
2022/01/23 09:28:13;;;;;;;6.03;5.32;;;;;;;6.57;31.57;102266.78;144992;570;6002;-81
2022/01/23 09:30:43;;;;;;;4.80;3.58;;;;;;;6.33;32.88;102277.16;144992;590;6002;-81
2022/01/23 09:33:10;;;;;;;3.67;2.85;;;;;;;6.17;32.39;102272.56;144992;586;6002;-82
2022/01/23 09:35:36;;;;;;;3.55;2.83;;;;;;;5.58;32.07;102280.25;144992;640;6002;-81
2022/01/23 09:38:02;;;;;;;5.62;2.67;;;;;;;5.41;32.26;102269.59;144992;596;6002;-78
2022/01/23 09:40:30;;;;;;;3.20;2.67;;;;;;;5.47;32.54;102276.84;144992;607;6002;-80
2022/01/23 09:43:08;;;;;;;6.30;5.62;;;;;;;5.56;32.48;102280.13;144992;610;6002;-80
2022/01/23 09:45:35;;;;;;;3.03;2.72;;;;;;;5.25;32.47;102274.37;144992;578;6002;-79
2022/01/23 09:48:03;;;;;;;6.65;3.67;;;;;;;5.21;32.67;102262.03;144992;630;6002;-80
2022/01/23 09:50:32;;;;;;;4.72;3.15;;;;;;;5.27;33.02;102272.78;144992;575;6002;-80
2022/01/23 09:53:00;;;;;;;5.60;3.10;;;;;;;5.24;33.67;102273.44;144992;581;6002;-82
2022/01/23 09:55:30;;;;;;;5.07;3.25;;;;;;;5.26;33.49;102258.13;144992;610;6002;-80
2022/01/23 09:57:57;;;;;;;4.32;2.95;;;;;;;5.53;33.02;102261.88;144992;628;6002;-81
2022/01/23 10:00:28;;;;;;;5.93;3.00;;;;;;;6.02;32.11;102259.47;144992;572;6002;-83
2022/01/23 10:02:57;;;;;;;4.97;3.47;;;;;;;6.45;31.11;102246.19;144992;570;6002;-83
2022/01/23 10:05:49;;;;;;;;;;;;;;;;;;;;;
2022/01/23 10:08:40;;;;;;;5.32;3.45;;;;;;;6.85;30.53;102244.72;144992;581;6004;-81
2022/01/23 10:11:13;;;;;;;3.78;2.67;;;;;;;6.86;31.83;102240.47;144992;578;6004;-83
2022/01/23 10:13:41;;;;;;;5.35;2.60;;;;;;;6.57;31.45;102226.44;144992;633;6004;-83
2022/01/23 10:16:08;;;;;;;3.30;2.50;;;;;;;6.45;31.97;102229.03;144992;582;6004;-83
2022/01/23 10:18:35;;;;;;;5.82;2.97;;;;;;;7.02;31.45;102238.12;144992;567;6004;-83
2022/01/23 10:21:02;;;;;;;4.65;2.40;;;;;;;7.01;30.31;102226.00;144992;595;6004;-82
2022/01/23 10:23:28;;;;;;;3.67;2.87;;;;;;;7.59;29.85;102226.44;144992;576;6012;-83
2022/01/23 10:25:55;;;;;;;3.78;2.90;;;;;;;7.80;31.06;102218.31;144992;657;6013;-83
2022/01/23 10:28:28;;;;;;;3.17;2.30;;;;;;;7.16;28.87;102213.25;144992;568;6004;-79
2022/01/23 10:30:58;;;;;;;2.55;2.30;;;;;;;7.08;29.86;102206.69;144992;660;6004;-84
2022/01/23 10:33:38;;;;;;;3.85;2.47;;;;;;;7.12;29.18;102206.09;144992;588;6004;-83
2022/01/23 10:36:14;;;;;;;4.35;2.60;;;;;;;6.79;30.07;102204.69;144992;567;6004;-87
2022/01/23 10:39:01;;;;;;;4.03;2.75;;;;;;;7.00;30.25;102200.06;144992;566;6004;-85
2022/01/23 10:47:32;;;;;;;3.62;2.78;;;;;;;6.61;29.44;102200.03;144992;626;6004;-84
2022/01/23 10:50:12;;;;;;;3.58;2.00;;;;;;;6.97;30.63;102189.53;144992;585;6004;-86
2022/01/23 10:52:49;;;;;;;2.65;2.37;;;;;;;6.87;28.29;102186.34;144992;585;6004;-83
2022/01/23 10:55:27;;;;;;;3.40;2.42;;;;;;;7.29;30.34;102181.41;144992;624;6004;-86
2022/01/23 10:58:00;;;;;;;2.83;2.00;;;;;;;7.51;29.78;102175.97;144992;586;6004;-84
2022/01/23 11:00:35;;;;;;;3.85;2.42;;;;;;;7.85;29.93;102167.78;144992;583;6004;-82
2022/01/23 11:03:29;;;;;;;4.55;3.03;;;;;;;7.95;29.61;102167.59;144992;618;6004;-82
2022/01/23 11:05:56;;;;;;;4.32;2.75;;;;;;;7.89;28.17;102162.03;144992;647;6004;-84
2022/01/23 11:08:25;;;;;;;3.45;2.20;;;;;;;8.08;28.51;102158.00;144992;571;6004;-83
2022/01/23 11:11:06;;;;;;;3.08;2.15;;;;;;;8.60;28.37;102165.56;144993;707;6013;-84
2022/01/23 11:19:22;;;;;;;3.83;2.67;;;;;;;9.69;26.63;102137.31;144993;575;6004;-85
2022/01/23 11:21:51;;;;;;;4.15;3.12;;;;;;;10.05;27.63;102132.41;144993;569;6002;-83
2022/01/23 11:24:18;;;;;;;2.80;2.15;;;;;;;9.40;24.91;102128.78;144992;593;6002;-84
2022/01/23 11:26:45;;;;;;;4.25;2.25;;;;;;;9.53;24.39;102122.59;144993;591;6002;-83
2022/01/23 11:29:15;;;;;;;3.05;2.10;;;;;;;9.21;24.00;102122.56;144993;588;6002;-82
2022/01/23 11:31:43;;;;;;;3.58;2.00;;;;;;;8.90;24.37;102123.34;144993;586;6002;-81
2022/01/23 11:34:14;;;;;;;3.28;2.70;;;;;;;8.56;24.73;102127.31;144993;697;6002;-84
2022/01/23 11:36:42;;;;;;;5.25;2.80;;;;;;;8.80;26.96;102134.00;144993;619;6002;-85
2022/01/23 11:39:15;;;;;;;3.08;2.00;;;;;;;9.22;25.68;102119.16;144993;661;6002;-84
2022/01/23 11:56:49;;;;;;;3.83;2.72;;;;;;;9.42;25.44;102098.69;144997;594;6004;-89
2022/01/23 11:59:30;;;;;;;3.10;2.40;;;;;;;9.54;24.71;102091.59;144993;572;6000;-85
2022/01/23 12:02:24;;;;;;;3.53;2.70;;;;;;;9.40;24.86;102097.69;144992;606;6002;-84
2022/01/23 12:05:31;;;;;;;2.00;1.80;;;;;;;9.50;24.93;102099.13;144993;571;6002;-85
2022/01/23 12:08:33;;;;;;;2.55;2.05;;;;;;;9.34;23.12;102077.53;144993;584;6002;-82
2022/01/23 12:17:40;;;;;;;4.40;2.20;;;;;;;9.60;24.68;102068.59;144993;573;6002;-84
2022/01/23 12:20:10;;;;;;;2.72;2.25;;;;;;;9.30;22.25;102060.00;144993;596;6002;-82
2022/01/23 12:22:40;;;;;;;3.80;2.80;;;;;;;9.47;22.48;102058.38;144993;595;6002;-84
2022/01/23 12:25:10;;;;;;;3.55;2.45;;;;;;;9.47;25.00;102049.72;144993;658;6002;-84
2022/01/23 12:27:37;;;;;;;3.60;3.00;;;;;;;9.57;24.73;102052.00;144993;599;6002;-85
2022/01/23 12:30:35;;;;;;;3.65;2.72;;;;;;;9.70;24.17;102043.19;144993;573;6002;-84
2022/01/23 12:33:21;;;;;;;4.80;3.10;;;;;;;9.72;24.31;102034.69;144993;586;6004;-83
2022/01/23 12:35:51;;;;;;;4.47;3.28;;;;;;;9.89;24.83;102032.97;144993;594;6002;-83
2022/01/23 12:38:19;;;;;;;3.78;2.78;;;;;;;10.16;25.03;102030.06;144993;644;6002;-81
2022/01/23 12:40:48;;;;;;;3.58;2.83;;;;;;;10.38;23.69;102034.72;144993;563;6002;-85
2022/01/23 12:43:21;;;;;;;4.50;2.80;;;;;;;10.30;22.02;102031.69;144993;604;6002;-81
2022/01/23 12:46:00;;;;;;;2.97;2.20;;;;;;;9.86;21.59;102030.22;144993;614;6002;-84
2022/01/23 12:48:55;;;;;;;2.62;2.10;;;;;;;10.19;24.84;102026.75;144993;571;6002;-82
2022/01/23 12:51:33;;;;;;;4.65;3.28;;;;;;;9.86;24.39;102024.16;144994;596;5005;-83
2022/01/23 12:54:16;;;;;;;6.95;4.82;;;;;;;10.11;22.70;102026.34;144994;578;5004;-84
2022/01/23 12:56:45;;;;;;;7.60;3.80;;;;;;;10.20;24.40;102029.44;144994;573;5004;-83
2022/01/23 12:59:36;;;;;;;4.25;3.80;;;;;;;9.30;21.49;102021.13;144994;590;5004;-84
2022/01/23 13:04:56;;;;;;;3.95;2.78;;;;;;;10.36;24.30;102015.56;144994;609;5002;-84
2022/01/23 13:07:50;;;;;;;4.78;3.33;;;;;;;10.41;23.85;102013.22;144994;589;5002;-80
2022/01/23 13:10:36;;;;;;;3.33;2.05;;;;;;;9.62;22.43;102006.47;144993;607;5002;-80
2022/01/23 13:13:22;;;;;;;;;;;;;;;9.93;21.50;102005.53;144998;909;5002;-80
2022/01/23 13:16:20;;;;;;;6.07;3.55;;;;;;;10.03;23.28;102007.78;144998;640;5002;-83
2022/01/23 13:27:54;;;;;;;2.70;2.40;;;;;;;10.38;22.83;102000.97;144994;611;5002;-82
2022/01/23 13:30:18;;;;;;;2.87;2.20;;;;;;;9.39;21.64;102002.63;144994;678;5004;-86
2022/01/23 13:32:48;;;;;;;4.43;3.30;;;;;;;9.47;23.80;101995.28;144994;567;5004;-85
2022/01/23 13:35:17;;;;;;;4.18;2.90;;;;;;;9.75;24.04;101988.19;144994;566;5004;-81
2022/01/23 13:37:56;;;;;;;4.65;2.40;;;;;;;9.37;22.21;101979.22;144994;587;5004;-83
2022/01/23 13:40:29;;;;;;;3.20;2.10;;;;;;;9.87;23.90;101990.50;144994;746;5004;-85
2022/01/23 13:52:02;;;;;;;4.40;3.53;;;;;;;9.49;24.23;101978.97;144994;607;5002;-84
2022/01/23 13:57:41;;;;;;;5.15;3.50;;;;;;;9.28;24.87;101983.00;144994;634;5004;-81
2022/01/23 14:00:24;;;;;;;3.28;2.60;;;;;;;9.48;25.12;101973.72;144994;573;5004;-82
2022/01/23 14:02:55;;;;;;;4.50;3.55;;;;;;;9.47;24.89;101972.81;144994;626;5004;-82
2022/01/23 14:05:30;;;;;;;5.28;3.62;;;;;;;9.70;25.32;101963.69;144994;657;5005;-81
2022/01/23 14:07:59;;;;;;;6.65;4.80;;;;;;;9.37;25.27;101963.66;144994;567;5004;-81
2022/01/23 14:10:33;;;;;;;6.30;4.20;;;;;;;9.46;25.32;101968.44;144994;584;5004;-81
2022/01/23 14:13:19;;;;;;;4.82;3.97;;;;;;;9.64;25.23;101965.97;144994;599;5004;-81
2022/01/23 14:15:49;;;;;;;;;;;;;;;9.32;24.28;101962.53;144998;912;5004;-81
2022/01/23 14:18:27;;;;;;;15.10;7.47;;;;;;;9.40;24.84;101963.84;144998;589;5000;-83
2022/01/23 14:21:11;;;;;;;14.07;8.60;;;;;;;9.55;25.03;101961.16;144994;643;5004;-80
2022/01/23 14:23:41;;;;;;;31.25;18.45;;;;;;;9.49;24.99;101963.44;144994;570;5002;-83
2022/01/23 14:26:13;;;;;;;15.38;10.63;;;;;;;9.61;24.91;101958.03;144994;569;5002;-81
2022/01/23 14:28:45;;;;;;;12.27;9.07;;;;;;;9.65;25.06;101959.94;144994;609;5002;-81
2022/01/23 14:31:19;;;;;;;7.47;5.90;;;;;;;9.54;24.05;101961.97;144994;566;5002;-82
2022/01/23 14:33:51;;;;;;;5.07;3.80;;;;;;;9.10;24.35;101959.53;144994;599;5002;-80
2022/01/23 14:36:24;;;;;;;5.50;3.90;;;;;;;9.10;24.35;101956.94;144994;579;5002;-80
2022/01/23 14:39:07;;;;;;;4.72;2.90;;;;;;;9.24;25.24;101956.00;144994;582;5002;-80
2022/01/23 14:41:41;;;;;;;6.03;4.40;;;;;;;9.21;25.84;101961.03;144994;612;5002;-81
2022/01/23 14:44:36;;;;;;;9.30;4.85;;;;;;;8.93;25.42;101962.09;144994;608;5002;-83
2022/01/23 14:47:03;;;;;;;7.00;5.12;;;;;;;8.88;25.52;101959.25;144994;667;5004;-82
2022/01/23 14:49:36;;;;;;;7.15;4.95;;;;;;;8.62;24.73;101957.78;144994;569;5004;-81
2022/01/23 14:52:09;;;;;;;6.70;4.57;;;;;;;8.69;25.83;101961.59;144994;631;5004;-81
2022/01/23 14:54:39;;;;;;;5.07;3.97;;;;;;;8.85;25.97;101959.06;144994;605;5004;-83
2022/01/23 14:57:11;;;;;;;6.87;4.90;;;;;;;8.89;25.98;101957.53;144994;619;5004;-81
2022/01/23 14:59:38;;;;;;;7.00;4.82;;;;;;;8.99;25.87;101965.03;144994;705;5004;-83
2022/01/23 15:02:08;;;;;;;6.45;4.95;;;;;;;9.03;25.65;101960.91;144994;632;5004;-79
2022/01/23 15:04:43;;;;;;;7.82;4.60;;;;;;;9.10;25.66;101970.81;144994;656;5004;-82
2022/01/23 15:07:14;;;;;;;6.93;4.45;;;;;;;9.03;26.10;101966.09;144994;574;5004;-84
2022/01/23 15:09:42;;;;;;;5.40;4.30;;;;;;;8.92;25.58;101962.88;144994;563;5004;-82
2022/01/23 15:12:11;;;;;;;6.32;4.47;;;;;;;8.94;26.05;101966.47;144994;562;5004;-86
2022/01/23 15:14:38;;;;;;;7.72;5.12;;;;;;;8.97;26.11;101965.72;144994;577;5004;-82
2022/01/23 15:17:05;;;;;;;6.47;4.93;;;;;;;9.00;25.69;101969.37;144994;587;5004;-84
2022/01/23 15:19:32;;;;;;;7.25;5.15;;;;;;;9.00;25.73;101969.37;144994;587;5004;-83
2022/01/23 15:21:58;;;;;;;7.93;5.55;;;;;;;8.99;25.84;101970.22;144994;579;5004;-83
2022/01/23 15:24:25;;;;;;;8.82;6.50;;;;;;;8.97;25.79;101971.81;144994;592;5004;-83
2022/01/23 15:26:51;;;;;;;9.65;6.95;;;;;;;8.95;26.12;101970.81;144994;587;5004;-82
2022/01/23 15:29:20;;;;;;;10.07;6.57;;;;;;;8.97;25.92;101971.81;144994;739;5004;-82